createdAt,value
2018-03-31T00:01:38.519Z,21.40
2018-03-31T00:04:06.003Z,21.00
2018-03-31T00:06:33.731Z,19.10
2018-03-31T00:09:00.711Z,16.47
2018-03-31T00:11:28.472Z,17.73
2018-03-31T00:13:56.197Z,19.50
2018-03-31T00:16:23.187Z,24.53
2018-03-31T00:18:51.195Z,19.53
2018-03-31T00:21:18.171Z,17.23
2018-03-31T00:23:45.151Z,17.17
2018-03-31T00:26:12.878Z,20.80
2018-03-31T00:28:39.860Z,22.30
2018-03-31T00:31:07.590Z,21.47
2018-03-31T00:33:34.560Z,19.30
2018-03-31T00:36:02.297Z,18.77
2018-03-31T00:38:29.258Z,23.63
2018-03-31T00:40:57.008Z,20.63
2018-03-31T00:43:23.970Z,23.13
2018-03-31T00:45:51.697Z,21.93
2018-03-31T00:48:18.686Z,28.40
2018-03-31T00:50:46.426Z,23.43
2018-03-31T00:53:13.406Z,21.93
2018-03-31T00:55:40.380Z,23.50
2018-03-31T00:58:07.349Z,20.13
2018-03-31T01:00:34.326Z,22.83
2018-03-31T01:03:02.050Z,23.40
2018-03-31T01:05:29.021Z,23.90
2018-03-31T01:07:55.998Z,23.53
2018-03-31T01:10:22.962Z,27.83
2018-03-31T01:12:50.007Z,28.20
2018-03-31T01:15:16.994Z,25.70
2018-03-31T01:17:43.966Z,27.90
2018-03-31T01:20:11.694Z,27.70
2018-03-31T01:22:38.662Z,31.23
2018-03-31T01:25:06.401Z,32.40
2018-03-31T01:27:34.158Z,31.97
2018-03-31T01:30:01.129Z,28.00
2018-03-31T01:32:28.100Z,33.27
2018-03-31T01:34:55.833Z,32.00
2018-03-31T01:37:22.801Z,27.87
2018-03-31T01:39:50.542Z,30.63
2018-03-31T01:42:17.501Z,29.97
2018-03-31T01:44:45.253Z,28.67
2018-03-31T01:47:12.217Z,30.17
2018-03-31T01:49:39.944Z,38.47
2018-03-31T01:52:06.914Z,30.10
2018-03-31T01:54:34.652Z,33.57
2018-03-31T01:57:01.629Z,31.03
2018-03-31T01:59:29.362Z,41.87
2018-03-31T02:01:56.322Z,43.20
2018-03-31T02:04:23.303Z,31.17
2018-03-31T02:06:50.267Z,30.57
2018-03-31T02:09:17.554Z,32.50
2018-03-31T02:11:44.559Z,39.67
2018-03-31T02:14:11.514Z,42.73
2018-03-31T02:16:38.524Z,40.40
2018-03-31T02:19:06.261Z,40.73
2018-03-31T02:21:33.233Z,43.83
2018-03-31T02:24:00.970Z,39.83
2018-03-31T02:26:27.930Z,40.77
2018-03-31T02:28:55.671Z,43.33
2018-03-31T02:31:22.649Z,43.37
2018-03-31T02:33:50.391Z,33.43
2018-03-31T02:36:17.363Z,34.90
2018-03-31T02:38:44.334Z,43.57
2018-03-31T02:41:11.322Z,37.33
2018-03-31T02:43:38.286Z,36.20
2018-03-31T02:46:06.605Z,33.07
2018-03-31T02:48:33.569Z,29.73
2018-03-31T02:51:00.546Z,34.90
2018-03-31T02:53:28.299Z,32.43
2018-03-31T02:55:55.265Z,39.37
2018-03-31T02:58:23.002Z,38.20
2018-03-31T03:00:49.974Z,40.73
2018-03-31T03:03:17.719Z,35.67
2018-03-31T03:05:44.678Z,46.27
2018-03-31T03:08:12.427Z,38.13
2018-03-31T03:10:39.658Z,57.27
2018-03-31T03:13:07.393Z,33.47
2018-03-31T03:15:34.365Z,41.47
2018-03-31T03:18:01.331Z,39.40
2018-03-31T03:20:28.307Z,47.93
2018-03-31T03:22:55.274Z,40.33
2018-03-31T03:25:22.234Z,47.23
2018-03-31T03:27:49.205Z,39.43
2018-03-31T03:30:16.176Z,42.73
2018-03-31T03:32:43.914Z,34.47
2018-03-31T03:35:10.900Z,35.57
2018-03-31T03:37:37.856Z,35.43
2018-03-31T03:40:04.815Z,30.87
2018-03-31T03:42:31.790Z,39.83
2018-03-31T03:44:58.774Z,26.90
2018-03-31T03:47:26.508Z,31.63
2018-03-31T03:49:53.477Z,46.93
2018-03-31T03:52:21.229Z,36.17
2018-03-31T03:54:48.957Z,32.40
2018-03-31T03:57:15.938Z,30.33
2018-03-31T03:59:43.677Z,36.17
2018-03-31T04:02:10.657Z,38.10
2018-03-31T04:04:38.402Z,35.43
2018-03-31T04:07:06.143Z,42.13
2018-03-31T04:09:33.893Z,49.10
2018-03-31T04:12:00.924Z,35.40
2018-03-31T04:14:27.893Z,41.30
2018-03-31T04:16:54.900Z,39.13
2018-03-31T04:19:21.863Z,35.70
2018-03-31T04:21:48.832Z,38.07
2018-03-31T04:24:15.810Z,39.43
2018-03-31T04:26:43.542Z,31.03
2018-03-31T04:29:10.514Z,41.70
2018-03-31T04:31:37.480Z,42.63
2018-03-31T04:34:04.457Z,38.20
2018-03-31T04:36:31.417Z,35.03
2018-03-31T04:38:58.391Z,44.83
2018-03-31T04:41:25.365Z,34.50
2018-03-31T04:43:52.356Z,46.17
2018-03-31T04:46:19.333Z,56.93
2018-03-31T04:48:47.083Z,40.50
2018-03-31T04:51:14.049Z,45.23
2018-03-31T04:53:41.812Z,49.77
2018-03-31T04:56:08.745Z,55.33
2018-03-31T04:58:36.481Z,40.63
2018-03-31T05:01:03.486Z,71.47
2018-03-31T05:03:30.496Z,37.60
2018-03-31T05:05:57.466Z,41.83
2018-03-31T05:08:25.228Z,32.87
2018-03-31T05:10:52.959Z,38.33
2018-03-31T05:13:19.938Z,40.00
2018-03-31T05:15:47.669Z,43.73
2018-03-31T05:18:14.669Z,53.97
2018-03-31T05:20:41.650Z,61.97
2018-03-31T05:23:08.642Z,44.40
2018-03-31T05:25:35.619Z,49.53
2018-03-31T05:28:02.593Z,40.60
2018-03-31T05:30:29.571Z,40.80
2018-03-31T05:32:57.305Z,47.00
2018-03-31T05:35:24.279Z,49.70
2018-03-31T05:37:52.038Z,37.40
2018-03-31T05:40:19.773Z,48.73
2018-03-31T05:42:47.513Z,44.93
2018-03-31T05:45:14.486Z,59.47
2018-03-31T05:47:41.466Z,54.70
2018-03-31T05:50:08.438Z,36.10
2018-03-31T05:52:35.423Z,48.87
2018-03-31T05:55:02.393Z,40.07
2018-03-31T05:57:30.134Z,50.10
2018-03-31T05:59:57.102Z,32.10
2018-03-31T06:02:24.833Z,39.17
2018-03-31T06:04:51.861Z,35.43
2018-03-31T06:07:18.830Z,40.20
2018-03-31T06:09:45.810Z,39.13
2018-03-31T06:12:13.098Z,35.23
2018-03-31T06:14:40.085Z,43.53
2018-03-31T06:17:07.044Z,30.77
2018-03-31T06:19:34.795Z,42.50
2018-03-31T06:22:02.534Z,34.13
2018-03-31T06:24:29.519Z,48.43
2018-03-31T06:27:00.706Z,38.83
2018-03-31T06:29:27.658Z,32.17
2018-03-31T06:31:54.669Z,36.37
2018-03-31T06:34:21.647Z,30.30
2018-03-31T06:36:48.622Z,34.40
2018-03-31T06:39:15.589Z,35.43
2018-03-31T06:41:43.329Z,32.87
2018-03-31T06:44:10.305Z,30.50
2018-03-31T06:46:38.050Z,30.47
2018-03-31T06:49:05.806Z,29.10
2018-03-31T06:51:32.776Z,36.30
2018-03-31T06:54:00.529Z,27.30
2018-03-31T06:56:28.258Z,29.87
2018-03-31T06:58:55.224Z,28.80
2018-03-31T07:01:22.190Z,35.50
2018-03-31T07:03:49.922Z,31.93
2018-03-31T07:06:16.882Z,29.20
2018-03-31T07:08:44.636Z,25.10
2018-03-31T07:11:11.593Z,29.23
2018-03-31T07:13:39.323Z,28.27
2018-03-31T07:16:06.314Z,30.23
2018-03-31T07:18:34.052Z,25.30
2018-03-31T07:21:01.018Z,26.13
2018-03-31T07:23:28.766Z,22.37
2018-03-31T07:25:55.737Z,29.10
2018-03-31T07:28:23.476Z,27.80
2018-03-31T07:30:50.446Z,25.13
2018-03-31T07:33:17.418Z,25.60
2018-03-31T07:35:44.390Z,22.77
2018-03-31T07:38:11.370Z,24.07
2018-03-31T07:40:39.121Z,23.13
2018-03-31T07:43:06.090Z,22.83
2018-03-31T07:45:33.813Z,25.87
2018-03-31T07:48:00.797Z,25.67
2018-03-31T07:50:27.769Z,22.23
2018-03-31T07:52:54.766Z,21.30
2018-03-31T07:55:22.510Z,22.80
2018-03-31T07:57:49.482Z,24.40
2018-03-31T08:00:17.226Z,21.00
2018-03-31T08:02:44.190Z,21.33
2018-03-31T08:05:11.938Z,19.97
2018-03-31T08:07:39.409Z,22.03
2018-03-31T08:10:07.139Z,22.00
2018-03-31T08:12:34.105Z,21.83
2018-03-31T08:15:01.073Z,19.53
2018-03-31T08:17:28.807Z,25.27
2018-03-31T08:19:55.781Z,22.60
2018-03-31T08:22:23.519Z,19.90
2018-03-31T08:24:50.482Z,19.57
2018-03-31T08:27:18.230Z,19.40
2018-03-31T08:29:45.205Z,19.57
2018-03-31T08:32:12.931Z,18.60
2018-03-31T08:34:39.898Z,15.97
2018-03-31T08:37:07.658Z,21.17
2018-03-31T08:39:35.403Z,19.70
2018-03-31T08:42:02.381Z,20.10
2018-03-31T08:44:30.117Z,21.30
2018-03-31T08:46:57.081Z,19.20
2018-03-31T08:49:24.825Z,17.87
2018-03-31T08:51:51.812Z,16.23
2018-03-31T08:54:18.799Z,19.07
2018-03-31T08:56:45.788Z,17.97
2018-03-31T08:59:13.534Z,18.90
2018-03-31T09:01:41.280Z,20.60
2018-03-31T09:04:08.251Z,16.80
2018-03-31T09:06:35.998Z,18.63
2018-03-31T09:09:02.965Z,19.00
2018-03-31T09:11:30.704Z,18.97
2018-03-31T09:13:57.686Z,17.10
2018-03-31T09:16:24.649Z,19.67
2018-03-31T09:18:51.634Z,20.57
2018-03-31T09:21:19.766Z,16.53
2018-03-31T09:23:46.718Z,18.07
2018-03-31T09:26:13.698Z,15.00
2018-03-31T09:28:40.677Z,16.97
2018-03-31T09:31:07.645Z,16.03
2018-03-31T09:33:34.694Z,17.50
2018-03-31T09:36:02.263Z,17.73
2018-03-31T09:38:29.244Z,15.53
2018-03-31T09:40:56.226Z,13.60
2018-03-31T09:43:23.199Z,14.90
2018-03-31T09:45:50.193Z,14.03
2018-03-31T09:48:17.938Z,15.90
2018-03-31T09:50:44.936Z,13.90
2018-03-31T09:53:11.897Z,12.93
2018-03-31T09:55:38.902Z,12.80
2018-03-31T09:58:06.649Z,13.03
2018-03-31T10:00:35.504Z,12.67
2018-03-31T10:03:02.542Z,12.27
2018-03-31T10:05:29.509Z,12.33
2018-03-31T10:07:56.486Z,12.33
2018-03-31T10:10:24.292Z,14.27
2018-03-31T10:12:51.278Z,10.57
2018-03-31T10:15:18.260Z,10.23
2018-03-31T10:17:45.234Z,11.77
2018-03-31T10:20:12.198Z,11.23
2018-03-31T10:22:39.208Z,9.73
2018-03-31T10:25:06.905Z,12.60
2018-03-31T10:27:33.874Z,11.77
2018-03-31T10:30:00.896Z,8.27
2018-03-31T10:32:27.875Z,9.43
2018-03-31T10:34:55.605Z,8.43
2018-03-31T10:37:22.588Z,8.10
2018-03-31T10:39:50.333Z,8.60
2018-03-31T10:42:17.311Z,9.17
2018-03-31T10:44:45.062Z,9.27
2018-03-31T10:47:12.800Z,9.80
2018-03-31T10:49:39.778Z,8.80
2018-03-31T10:52:07.528Z,9.60
2018-03-31T10:54:35.264Z,10.40
2018-03-31T10:57:02.278Z,8.33
2018-03-31T10:59:29.246Z,6.50
2018-03-31T11:01:56.217Z,8.00
2018-03-31T11:04:23.214Z,6.80
2018-03-31T11:06:50.177Z,8.00
2018-03-31T11:09:17.153Z,8.90
2018-03-31T11:11:44.118Z,8.83
2018-03-31T11:14:11.858Z,8.83
2018-03-31T11:16:38.826Z,10.13
2018-03-31T11:19:06.566Z,10.67
2018-03-31T11:21:33.566Z,11.17
2018-03-31T11:24:00.557Z,11.13
2018-03-31T11:26:27.510Z,9.93
2018-03-31T11:28:54.511Z,8.47
2018-03-31T11:31:21.529Z,10.07
2018-03-31T11:33:48.523Z,9.60
2018-03-31T11:36:15.495Z,9.90
2018-03-31T11:38:43.235Z,7.80
2018-03-31T11:41:10.246Z,7.80
2018-03-31T11:43:37.219Z,6.47
2018-03-31T11:46:04.170Z,7.07
2018-03-31T11:48:31.152Z,7.83
2018-03-31T11:50:58.892Z,9.43
2018-03-31T11:53:25.902Z,7.47
2018-03-31T11:55:52.863Z,7.33
2018-03-31T11:58:19.838Z,7.97
2018-03-31T12:00:46.807Z,7.97
2018-03-31T12:03:14.546Z,8.23
2018-03-31T12:05:41.528Z,6.67
2018-03-31T12:08:08.486Z,10.80
2018-03-31T12:10:35.482Z,6.50
2018-03-31T12:13:03.442Z,5.73
2018-03-31T12:15:30.414Z,6.60
2018-03-31T12:17:58.156Z,5.70
2018-03-31T12:20:25.114Z,6.53
2018-03-31T12:22:52.845Z,8.27
2018-03-31T12:25:19.834Z,9.33
2018-03-31T12:27:46.801Z,6.23
2018-03-31T12:30:13.778Z,6.77
2018-03-31T12:32:41.526Z,7.03
2018-03-31T12:35:08.481Z,7.07
2018-03-31T12:37:37.262Z,8.20
2018-03-31T12:40:04.246Z,7.90
2018-03-31T12:42:32.090Z,10.10
2018-03-31T12:44:59.083Z,7.80
2018-03-31T12:47:26.049Z,6.33
2018-03-31T12:49:53.053Z,8.53
2018-03-31T12:52:21.458Z,7.10
2018-03-31T12:54:48.481Z,8.17
2018-03-31T12:57:16.230Z,7.60
2018-03-31T12:59:43.781Z,6.10
2018-03-31T13:02:10.815Z,6.90
2018-03-31T13:04:37.785Z,5.63
2018-03-31T13:07:05.520Z,5.20
2018-03-31T13:09:32.503Z,5.67
2018-03-31T13:12:00.250Z,6.00
2018-03-31T13:14:27.219Z,6.63
2018-03-31T13:16:54.967Z,5.40
2018-03-31T13:19:21.934Z,4.57
2018-03-31T13:21:48.990Z,4.70
2018-03-31T13:24:15.972Z,4.37
2018-03-31T13:26:42.949Z,5.83
2018-03-31T13:29:10.752Z,5.53
2018-03-31T13:31:37.746Z,5.70
2018-03-31T13:34:04.712Z,6.60
2018-03-31T13:36:32.754Z,4.73
2018-03-31T13:38:59.770Z,4.50
2018-03-31T13:41:27.528Z,5.20
2018-03-31T13:43:54.551Z,5.50
2018-03-31T13:46:22.340Z,4.43
2018-03-31T13:48:50.328Z,6.57
2018-03-31T13:51:17.359Z,4.80
2018-03-31T13:53:44.336Z,4.47
2018-03-31T13:56:11.339Z,6.60
2018-03-31T13:58:38.315Z,6.37
2018-03-31T14:01:05.295Z,6.30
2018-03-31T14:03:32.254Z,4.83
2018-03-31T14:05:59.993Z,4.27
2018-03-31T14:08:27.750Z,5.17
2018-03-31T14:10:54.754Z,9.13
2018-03-31T14:13:22.514Z,5.50
2018-03-31T14:15:49.470Z,5.50
2018-03-31T14:18:16.439Z,7.03
2018-03-31T14:20:43.409Z,6.40
2018-03-31T14:23:10.473Z,7.20
2018-03-31T14:25:37.349Z,6.90
2018-03-31T14:28:04.342Z,7.63
2018-03-31T14:30:31.311Z,7.33
2018-03-31T14:32:59.049Z,7.23
2018-03-31T14:35:26.507Z,6.63
2018-03-31T14:37:53.506Z,8.03
2018-03-31T14:40:21.101Z,6.10
2018-03-31T14:42:48.078Z,12.00
2018-03-31T14:45:15.829Z,11.90
2018-03-31T14:47:42.802Z,5.83
2018-03-31T14:50:09.774Z,5.40
2018-03-31T14:52:36.754Z,8.13
2018-03-31T14:55:04.594Z,6.70
2018-03-31T14:57:31.568Z,5.80
2018-03-31T14:59:58.542Z,6.67
2018-03-31T15:02:25.559Z,6.13
2018-03-31T15:04:52.537Z,5.97
2018-03-31T15:07:19.510Z,8.40
2018-03-31T15:09:46.543Z,7.70
2018-03-31T15:12:13.557Z,5.90
2018-03-31T15:14:41.286Z,8.07
2018-03-31T15:17:08.259Z,6.00
2018-03-31T15:19:36.038Z,20.00
2018-03-31T15:22:03.775Z,33.27
2018-03-31T15:24:30.732Z,9.07
2018-03-31T15:26:58.487Z,18.80
2018-03-31T15:29:25.482Z,6.77
2018-03-31T15:31:52.443Z,17.47
2018-03-31T15:34:19.422Z,5.77
2018-03-31T15:36:46.486Z,5.57
2018-03-31T15:39:14.250Z,8.37
2018-03-31T15:41:41.993Z,6.57
2018-03-31T15:44:08.958Z,5.70
2018-03-31T15:46:36.750Z,14.40
2018-03-31T15:49:03.679Z,19.20
2018-03-31T15:51:30.675Z,20.60
2018-03-31T15:53:57.649Z,9.37
2018-03-31T15:56:25.407Z,5.80
2018-03-31T15:58:52.386Z,5.40
2018-03-31T16:01:19.350Z,7.80
2018-03-31T16:03:46.349Z,7.80
2018-03-31T16:06:14.084Z,7.07
2018-03-31T16:08:41.070Z,8.40
2018-03-31T16:11:08.818Z,8.33
2018-03-31T16:13:36.562Z,8.30
2018-03-31T16:16:03.534Z,8.17
2018-03-31T16:18:31.266Z,9.43
2018-03-31T16:20:58.244Z,10.20
2018-03-31T16:23:25.987Z,13.77
2018-03-31T16:25:52.961Z,13.27
2018-03-31T16:28:20.725Z,15.60
2018-03-31T16:30:48.455Z,8.10
2018-03-31T16:33:15.471Z,8.43
2018-03-31T16:35:42.471Z,7.50
2018-03-31T16:38:10.230Z,10.90
2018-03-31T16:40:37.963Z,8.17
2018-03-31T16:43:04.944Z,12.90
2018-03-31T16:45:32.805Z,8.37
2018-03-31T16:48:00.675Z,10.30
2018-03-31T16:50:28.442Z,10.23
2018-03-31T16:52:55.433Z,8.53
2018-03-31T16:55:22.389Z,8.60
2018-03-31T16:57:49.410Z,10.00
2018-03-31T17:00:16.374Z,11.33
2018-03-31T17:02:43.346Z,10.90
2018-03-31T17:05:10.314Z,8.77
2018-03-31T17:07:38.046Z,10.23
2018-03-31T17:10:05.058Z,11.87
2018-03-31T17:12:32.133Z,12.57
2018-03-31T17:14:59.114Z,12.17
2018-03-31T17:17:26.863Z,16.40
2018-03-31T17:19:53.829Z,15.07
2018-03-31T17:22:20.858Z,15.10
2018-03-31T17:24:47.818Z,16.60
2018-03-31T17:27:14.822Z,15.90
2018-03-31T17:29:41.792Z,16.27
2018-03-31T17:32:08.762Z,19.93
2018-03-31T17:34:35.755Z,15.63
2018-03-31T17:37:02.756Z,15.43
2018-03-31T17:39:29.731Z,14.80
2018-03-31T17:41:56.724Z,16.50
2018-03-31T17:44:23.686Z,21.17
2018-03-31T17:46:50.658Z,17.20
2018-03-31T17:49:17.656Z,17.03
2018-03-31T17:51:44.634Z,21.73
2018-03-31T17:54:11.623Z,21.23
2018-03-31T17:56:38.601Z,21.13
2018-03-31T17:59:06.328Z,13.43
2018-03-31T18:01:33.318Z,12.73
2018-03-31T18:04:01.046Z,14.23
2018-03-31T18:06:28.039Z,15.03
2018-03-31T18:08:55.222Z,15.00
2018-03-31T18:11:22.207Z,17.07
2018-03-31T18:13:49.181Z,23.47
2018-03-31T18:16:16.153Z,21.30
2018-03-31T18:18:43.354Z,16.73
2018-03-31T18:21:11.106Z,17.73
2018-03-31T18:23:38.090Z,17.07
2018-03-31T18:26:05.074Z,21.00
2018-03-31T18:28:32.046Z,16.53
2018-03-31T18:30:59.038Z,16.50
2018-03-31T18:33:26.095Z,19.57
2018-03-31T18:35:53.006Z,16.70
2018-03-31T18:38:20.730Z,15.20
2018-03-31T18:40:47.717Z,19.00
2018-03-31T18:43:15.458Z,16.00
2018-03-31T18:45:42.456Z,17.47
2018-03-31T18:48:09.434Z,18.37
2018-03-31T18:50:36.437Z,26.63
2018-03-31T18:53:03.437Z,22.43
2018-03-31T18:55:30.395Z,19.70
2018-03-31T18:57:58.136Z,14.17
2018-03-31T19:00:25.110Z,14.90
2018-03-31T19:02:52.863Z,15.13
2018-03-31T19:05:20.622Z,12.10
2018-03-31T19:07:48.369Z,12.33
2018-03-31T19:10:15.373Z,11.60
2018-03-31T19:12:42.855Z,10.10
2018-03-31T19:15:09.822Z,15.37
2018-03-31T19:17:36.842Z,12.57
2018-03-31T19:20:03.829Z,12.67
2018-03-31T19:22:31.570Z,12.67
2018-03-31T19:25:04.298Z,13.97
2018-03-31T19:27:31.315Z,12.80
2018-03-31T19:29:58.230Z,13.70
2018-03-31T19:32:25.218Z,11.50
2018-03-31T19:34:52.970Z,12.87
2018-03-31T19:37:20.715Z,13.70
2018-03-31T19:39:47.679Z,12.90
2018-03-31T19:42:15.425Z,13.53
2018-03-31T19:44:42.398Z,15.53
2018-03-31T19:47:10.126Z,12.63
2018-03-31T19:49:37.115Z,12.13
2018-03-31T19:52:04.857Z,15.63
2018-03-31T19:54:31.831Z,15.37
2018-03-31T19:56:58.912Z,12.10
2018-03-31T19:59:26.659Z,17.80
2018-03-31T20:01:53.631Z,17.00
2018-03-31T20:04:20.635Z,18.10
2018-03-31T20:06:47.594Z,17.90
2018-03-31T20:09:14.581Z,17.80
2018-03-31T20:11:41.584Z,16.37
2018-03-31T20:14:08.787Z,21.60
2018-03-31T20:16:35.758Z,26.00
2018-03-31T20:19:02.727Z,31.00
2018-03-31T20:21:29.693Z,24.83
2018-03-31T20:23:56.676Z,20.87
2018-03-31T20:26:23.634Z,23.13
2018-03-31T20:28:51.381Z,17.83
2018-03-31T20:31:18.354Z,20.00
2018-03-31T20:33:45.318Z,19.33
2018-03-31T20:36:12.310Z,20.97
2018-03-31T20:38:39.276Z,21.90
2018-03-31T20:41:07.029Z,19.13
2018-03-31T20:43:34.795Z,18.87
2018-03-31T20:46:02.543Z,20.63
2018-03-31T20:48:29.532Z,21.03
2018-03-31T20:50:56.502Z,20.20
2018-03-31T20:53:24.501Z,18.60
2018-03-31T20:55:51.475Z,19.13
2018-03-31T20:58:19.206Z,20.70
2018-03-31T21:00:46.182Z,21.77
2018-03-31T21:03:13.918Z,22.43
2018-03-31T21:05:40.918Z,17.03
2018-03-31T21:08:07.887Z,20.67
2018-03-31T21:10:35.758Z,23.77
2018-03-31T21:13:02.742Z,19.20
2018-03-31T21:15:30.465Z,19.10
2018-03-31T21:17:57.458Z,22.60
2018-03-31T21:20:25.187Z,23.93
2018-03-31T21:22:52.166Z,25.53
2018-03-31T21:25:19.138Z,23.63
2018-03-31T21:27:46.120Z,21.63
2018-03-31T21:30:13.094Z,27.63
2018-03-31T21:32:40.852Z,25.40
2018-03-31T21:35:07.811Z,30.37
2018-03-31T21:37:34.800Z,25.00
2018-03-31T21:40:01.770Z,23.13
2018-03-31T21:42:30.251Z,28.17
2018-03-31T21:44:57.226Z,29.13
2018-03-31T21:47:25.553Z,26.23
2018-03-31T21:49:52.514Z,25.10
2018-03-31T21:52:20.266Z,24.93
2018-03-31T21:54:47.250Z,26.03
2018-03-31T21:57:14.976Z,20.90
2018-03-31T21:59:41.955Z,25.67
2018-03-31T22:02:09.696Z,29.63
2018-03-31T22:04:36.695Z,27.10
2018-03-31T22:07:03.672Z,29.20
2018-03-31T22:09:30.666Z,26.50
2018-03-31T22:11:58.454Z,30.80
2018-03-31T22:14:31.040Z,29.20
2018-03-31T22:16:58.019Z,23.63
2018-03-31T22:19:24.995Z,26.73
2018-03-31T22:21:52.732Z,29.90
2018-03-31T22:24:19.697Z,27.23
2018-03-31T22:26:47.449Z,30.43
2018-03-31T22:29:14.417Z,27.20
2018-03-31T22:31:42.159Z,38.17
2018-03-31T22:34:09.149Z,36.43
2018-03-31T22:36:36.119Z,26.97
2018-03-31T22:39:03.110Z,30.97
2018-03-31T22:41:30.860Z,24.20
2018-03-31T22:43:57.839Z,33.57
2018-03-31T22:46:24.855Z,37.27
2018-03-31T22:48:53.076Z,29.40
2018-03-31T22:51:20.071Z,28.80
2018-03-31T22:53:47.030Z,29.27
2018-03-31T22:56:14.806Z,29.10
2018-03-31T22:58:41.786Z,34.33
2018-03-31T23:01:08.752Z,31.83
2018-03-31T23:03:35.739Z,38.33
2018-03-31T23:06:02.703Z,28.97
2018-03-31T23:08:29.681Z,39.57
2018-03-31T23:10:56.666Z,31.90
2018-03-31T23:13:24.484Z,34.90
2018-03-31T23:15:51.438Z,37.47
2018-03-31T23:18:18.439Z,35.43
2018-03-31T23:20:46.193Z,37.50
2018-03-31T23:23:13.167Z,34.60
2018-03-31T23:25:41.133Z,36.00
2018-03-31T23:28:08.089Z,33.43
2018-03-31T23:30:35.080Z,37.13
2018-03-31T23:33:02.813Z,39.80
2018-03-31T23:35:30.554Z,40.63
2018-03-31T23:37:57.531Z,35.87
2018-03-31T23:40:24.510Z,40.57
2018-03-31T23:42:52.255Z,51.73
2018-03-31T23:45:19.212Z,39.60
2018-03-31T23:47:47.019Z,59.93
2018-03-31T23:50:14.010Z,57.03
2018-03-31T23:52:40.993Z,73.47
2018-03-31T23:55:07.969Z,61.50
2018-03-31T23:57:35.024Z,73.97
